Aérodrome :
LOGIN :

S'inscrire | Disclaimer

   EN    FR    IT 

 










Légende :    VFR   VFR Marginal   IFR   IFR Intensif   IFR Très Intensif
Visi : 
Plafond : 
>= 8 km
>= 3000ft
5 à 8 km
1000 à 3000 ft
1500m à 5 km
500 à 1000 ft
800 à 1500m
200 à 500 ft
< 800m
< 200 ft
Symboles :   Orages  Brouillard  Fortes neiges  Fortes précipitations  Vent > 20 kt
SIGMETs :   Divers  Orages  Givrage  Turbulence  Onde Orograph.  Cendres Volcan.






- Altitude de l'aérodrome : 37 ft
- Code IATA : HLY


EGOV - RAF Valley

DERNIER METAR :
  • 030650Z 19005KT 9999 FEW017 BKN250 16/11 Q1013 NOSIG RMK BLU BLU

METARs EXPIRÉS :
  • 030620Z 17003KT 9999 FEW020 SCT039 BKN250 14/12 Q1013 NOSIG RMK BLU BLU
  • 030550Z 15004KT 9999 FEW020 SCT250 14/12 Q1013 RMK BLU
  • 030450Z AUTO 12005KT 9999 BKN049/// 13/11 Q1013

TAF TAF EGOV
Valide du 03 à 07h jusqu'au 03 à 15h UTC


030503Z 0307/0315 VRB03KT 9999 FEW020 SCT048
PROB30
TEMPO 0307/0315 SCT017



MET'MAP, la Météo Aéronautique d'un coup d'oeil ! - Copyright ORBIFLY Décembre 2007 - Disclaimer

ORBIFLY MET'MAP TEAM :

Programmation & Développement : Alexandra Zaïnal
Sur une idée originale de : Baudouin d'Aumeries
Assistance à la programmation : Marc-Olivier Méhu
Soutien technique & logistique : Manuel Goepfert

Contact : metmap@orbifly.com




SOURCES & CREDITS :

   NOAA